createdAt,value
2018-06-22T13:01:14.689Z,23.89
2018-06-22T13:02:14.287Z,24.01
2018-06-22T13:03:14.242Z,23.87
2018-06-22T13:04:14.210Z,23.94
2018-06-22T13:05:14.164Z,24.01
2018-06-22T13:06:14.136Z,23.98
2018-06-22T13:07:14.103Z,23.90
2018-06-22T13:08:14.062Z,23.98
2018-06-22T13:09:14.036Z,23.95
2018-06-22T13:10:13.979Z,24.02
2018-06-22T13:11:13.948Z,24.02
2018-06-22T13:12:13.930Z,24.04
2018-06-22T13:13:13.880Z,24.05
2018-06-22T13:14:13.847Z,24.02
2018-06-22T13:15:13.812Z,24.12
2018-06-22T13:16:13.781Z,24.14
2018-06-22T13:17:13.755Z,24.23
2018-06-22T13:18:13.717Z,24.26
2018-06-22T13:19:13.683Z,24.39
2018-06-22T13:20:13.656Z,24.37
2018-06-22T13:21:13.622Z,24.38
2018-06-22T13:22:13.592Z,24.47
2018-06-22T13:23:13.574Z,24.52
2018-06-22T13:24:13.570Z,24.52
2018-06-22T13:25:13.506Z,24.60
2018-06-22T13:26:13.471Z,24.67
2018-06-22T13:27:13.438Z,24.73
2018-06-22T13:28:13.417Z,24.76
2018-06-22T13:29:13.386Z,24.69
2018-06-22T13:30:13.350Z,24.73
2018-06-22T13:31:13.337Z,24.76
2018-06-22T13:32:13.300Z,24.79
2018-06-22T13:33:13.298Z,24.79
2018-06-22T13:34:13.242Z,24.69
2018-06-22T13:35:13.218Z,24.67
2018-06-22T13:36:13.175Z,24.69
2018-06-22T13:37:13.150Z,24.85
2018-06-22T13:38:13.123Z,24.82
2018-06-22T13:39:13.197Z,24.90
2018-06-22T13:40:13.062Z,24.85
2018-06-22T13:41:13.040Z,24.91
2018-06-22T13:42:13.004Z,24.92
2018-06-22T13:43:12.979Z,24.83
2018-06-22T13:44:12.958Z,24.98
2018-06-22T13:45:12.931Z,25.13
2018-06-22T13:46:12.897Z,25.19
2018-06-22T13:47:12.866Z,25.05
2018-06-22T13:48:12.836Z,25.13
2018-06-22T13:49:12.807Z,25.17
2018-06-22T13:50:12.909Z,25.19
2018-06-22T13:51:12.763Z,25.24
2018-06-22T13:52:12.733Z,25.42
2018-06-22T13:53:12.701Z,25.27
2018-06-22T13:54:12.668Z,25.35
2018-06-22T13:55:12.655Z,25.34
2018-06-22T13:56:12.618Z,25.27
2018-06-22T13:57:12.732Z,25.34
2018-06-22T13:58:12.559Z,25.31
2018-06-22T13:59:12.535Z,25.46
2018-06-22T14:00:12.513Z,25.46
2018-06-22T14:01:12.604Z,25.32
2018-06-22T14:02:12.458Z,25.32
2018-06-22T14:03:12.426Z,25.28
2018-06-22T14:04:12.407Z,25.34
2018-06-22T14:05:12.386Z,25.35
2018-06-22T14:06:12.402Z,25.34
2018-06-22T14:07:12.322Z,25.46
2018-06-22T14:08:12.295Z,25.39
2018-06-22T14:09:12.292Z,25.35
2018-06-22T14:10:12.340Z,25.57
2018-06-22T14:11:12.216Z,25.43
2018-06-22T14:12:12.329Z,25.59
2018-06-22T14:13:12.152Z,25.59
2018-06-22T14:14:12.151Z,25.67
2018-06-22T14:15:12.111Z,25.74
2018-06-22T14:16:12.075Z,25.74
2018-06-22T14:17:12.043Z,25.68
2018-06-22T14:18:12.169Z,25.74
2018-06-22T14:19:11.991Z,25.89
2018-06-22T14:20:12.039Z,25.98
2018-06-22T14:21:11.939Z,25.99
2018-06-22T14:22:11.921Z,26.08
2018-06-22T14:23:11.889Z,26.25
2018-06-22T14:25:11.842Z,26.20
2018-06-22T14:26:11.803Z,26.22
2018-06-22T14:27:11.789Z,26.08
2018-06-22T14:28:11.758Z,26.11
2018-06-22T14:29:11.724Z,26.15
2018-06-22T14:30:11.691Z,26.08
2018-06-22T14:31:11.680Z,26.09
2018-06-22T14:32:11.647Z,26.11
2018-06-22T14:33:11.628Z,26.01
2018-06-22T14:34:11.739Z,25.93
2018-06-22T14:35:11.579Z,25.97
2018-06-22T14:36:11.534Z,25.94
2018-06-22T14:37:11.507Z,25.89
2018-06-22T14:38:11.477Z,25.94
2018-06-22T14:39:11.450Z,25.98
2018-06-22T14:40:11.431Z,25.93
2018-06-22T14:41:11.396Z,25.99
2018-06-22T14:42:11.367Z,25.97
2018-06-22T14:43:11.341Z,25.98
2018-06-22T14:44:11.334Z,25.97
2018-06-22T14:45:11.292Z,25.94
2018-06-22T14:46:11.261Z,26.02
2018-06-22T14:47:11.234Z,26.11
2018-06-22T14:48:11.213Z,26.11
2018-06-22T14:49:11.203Z,26.11
2018-06-22T14:50:11.352Z,26.21
2018-06-22T14:51:11.131Z,26.24
2018-06-22T14:52:11.109Z,26.22
2018-06-22T14:53:11.080Z,26.25
2018-06-22T14:54:11.053Z,26.22
2018-06-22T14:55:11.230Z,26.35
2018-06-22T14:56:11.070Z,26.32
2018-06-22T14:57:11.350Z,26.39
2018-06-22T14:58:11.268Z,26.32
2018-06-22T14:59:10.927Z,26.39
2018-06-22T15:00:10.909Z,26.49
2018-06-22T15:01:10.915Z,26.54
2018-06-22T15:02:10.834Z,26.50
2018-06-22T15:03:11.005Z,26.49
2018-06-22T15:04:10.783Z,26.47
2018-06-22T15:05:10.752Z,26.50
2018-06-22T15:06:10.747Z,26.55
2018-06-22T15:07:10.883Z,26.47
2018-06-22T15:08:10.696Z,26.59
2018-06-22T15:09:10.646Z,26.61
2018-06-22T15:10:10.707Z,26.54
2018-06-22T15:11:10.598Z,26.59
2018-06-22T15:12:10.613Z,26.67
2018-06-22T15:13:10.537Z,26.68
2018-06-22T15:14:10.883Z,26.67
2018-06-22T15:15:10.514Z,26.72
2018-06-22T15:16:10.670Z,26.76
2018-06-22T15:17:10.439Z,26.68
2018-06-22T15:18:10.432Z,26.62
2018-06-22T15:19:10.402Z,26.69
2018-06-22T15:20:10.358Z,26.79
2018-06-22T15:21:10.353Z,26.81
2018-06-22T15:22:10.305Z,26.84
2018-06-22T15:23:10.513Z,26.76
2018-06-22T15:24:10.256Z,26.76
2018-06-22T15:25:10.339Z,26.86
2018-06-22T15:26:10.190Z,26.86
2018-06-22T15:27:10.165Z,26.87
2018-06-22T15:28:11.365Z,26.91
2018-06-22T15:29:10.140Z,26.96
2018-06-22T15:30:10.138Z,26.98
2018-06-22T15:31:10.063Z,27.01
2018-06-22T15:32:10.091Z,27.05
2018-06-22T15:33:10.014Z,27.05
2018-06-22T15:34:10.010Z,27.09
2018-06-22T15:35:09.977Z,27.17
2018-06-22T15:36:10.262Z,27.14
2018-06-22T15:37:09.960Z,27.26
2018-06-22T15:38:09.934Z,27.24
2018-06-22T15:39:09.900Z,27.31
2018-06-22T15:40:09.855Z,27.38
2018-06-22T15:41:09.804Z,27.33
2018-06-22T15:42:09.777Z,27.41
2018-06-22T15:43:09.736Z,27.54
2018-06-22T15:44:09.747Z,27.57
2018-06-22T15:45:09.827Z,27.50
2018-06-22T15:46:09.878Z,27.59
2018-06-22T15:47:09.650Z,27.48
2018-06-22T15:48:09.641Z,27.61
2018-06-22T15:49:09.603Z,27.48
2018-06-22T15:50:09.555Z,27.58
2018-06-22T15:51:09.897Z,27.58
2018-06-22T15:52:09.504Z,27.67
2018-06-22T15:53:09.481Z,27.64
2018-06-22T15:54:09.454Z,27.62
2018-06-22T15:55:09.420Z,27.61
2018-06-22T15:56:09.440Z,27.69
2018-06-22T15:57:09.365Z,27.76
2018-06-22T15:58:09.349Z,27.77
2018-06-22T15:59:09.316Z,27.82
2018-06-22T16:00:09.325Z,27.92
2018-06-22T16:01:09.265Z,27.86
2018-06-22T16:02:09.543Z,27.86
2018-06-22T16:03:09.219Z,27.89
2018-06-22T16:04:09.194Z,27.98
2018-06-22T16:05:09.158Z,27.98
2018-06-22T16:06:09.163Z,27.89
2018-06-22T16:07:09.102Z,27.99
2018-06-22T16:08:09.344Z,27.92
2018-06-22T16:09:09.128Z,27.95
2018-06-22T16:10:09.026Z,27.86
2018-06-22T16:11:09.068Z,27.89
2018-06-22T16:12:08.972Z,27.80
2018-06-22T16:13:08.944Z,27.79
2018-06-22T16:14:09.188Z,27.76
2018-06-22T16:15:08.899Z,27.79
2018-06-22T16:16:08.872Z,27.74
2018-06-22T16:17:08.850Z,27.71
2018-06-22T16:18:08.814Z,27.70
2018-06-22T16:19:08.845Z,27.67
2018-06-22T16:20:08.763Z,27.82
2018-06-22T16:21:08.738Z,27.69
2018-06-22T16:22:08.728Z,27.79
2018-06-22T16:23:08.687Z,27.77
2018-06-22T16:24:08.653Z,27.84
2018-06-22T16:26:08.609Z,27.84
2018-06-22T16:27:08.579Z,27.80
2018-06-22T16:28:08.573Z,27.95
2018-06-22T16:29:08.541Z,27.85
2018-06-22T16:30:08.660Z,27.86
2018-06-22T16:31:08.471Z,27.84
2018-06-22T16:32:08.458Z,27.86
2018-06-22T16:33:08.428Z,27.95
2018-06-22T16:34:08.400Z,27.95
2018-06-22T16:35:08.363Z,27.92
2018-06-22T16:36:08.343Z,27.95
2018-06-22T16:37:08.323Z,27.88
2018-06-22T16:38:08.289Z,27.91
2018-06-22T16:39:08.259Z,27.89
2018-06-22T16:40:08.241Z,27.91
2018-06-22T16:41:08.360Z,27.96
2018-06-22T16:42:08.184Z,28.03
2018-06-22T16:43:08.157Z,27.96
2018-06-22T16:44:08.130Z,28.09
2018-06-22T16:45:08.103Z,28.04
2018-06-22T16:46:08.081Z,28.17
2018-06-22T16:47:08.401Z,28.21
2018-06-22T16:48:08.028Z,28.11
2018-06-22T16:49:08.004Z,28.23
2018-06-22T16:50:07.974Z,28.09
2018-06-22T16:51:07.945Z,28.10
2018-06-22T16:52:07.921Z,28.14
2018-06-22T16:53:08.047Z,28.23
2018-06-22T16:54:07.865Z,28.17
2018-06-22T16:55:07.846Z,28.23
2018-06-22T16:56:07.816Z,28.25
2018-06-22T16:57:08.028Z,28.23
2018-06-22T16:58:07.765Z,28.23
2018-06-22T16:59:07.756Z,28.21
2018-06-22T17:00:07.720Z,28.29
2018-06-22T17:01:07.681Z,28.22
2018-06-22T17:02:07.667Z,28.35
2018-06-22T17:03:07.637Z,28.26
2018-06-22T17:04:07.760Z,28.29
2018-06-22T17:05:07.589Z,28.28
2018-06-22T17:06:07.612Z,28.25
2018-06-22T17:07:07.575Z,28.33
2018-06-22T17:08:07.502Z,28.32
2018-06-22T17:09:07.514Z,28.36
2018-06-22T17:10:07.452Z,28.43
2018-06-22T17:11:07.420Z,28.48
2018-06-22T17:12:07.394Z,28.47
2018-06-22T17:13:07.384Z,28.56
2018-06-22T17:14:07.390Z,28.54
2018-06-22T17:15:07.469Z,28.51
2018-06-22T17:16:07.290Z,28.62
2018-06-22T17:17:07.266Z,28.54
2018-06-22T17:18:07.276Z,28.62
2018-06-22T17:19:07.220Z,28.60
2018-06-22T17:20:07.196Z,28.63
2018-06-22T17:21:07.544Z,28.62
2018-06-22T17:22:07.165Z,28.68
2018-06-22T17:23:07.125Z,28.60
2018-06-22T17:24:07.084Z,28.62
2018-06-22T17:25:07.067Z,28.63
2018-06-22T17:26:07.039Z,28.65
2018-06-22T17:27:07.306Z,28.69
2018-06-22T17:28:06.987Z,28.70
2018-06-22T17:29:06.955Z,28.59
2018-06-22T17:30:06.925Z,28.54
2018-06-22T17:31:06.907Z,28.51
2018-06-22T17:32:06.903Z,28.46
2018-06-22T17:33:07.000Z,28.53
2018-06-22T17:34:06.833Z,28.59
2018-06-22T17:35:06.808Z,28.47
2018-06-22T17:36:06.776Z,28.47
2018-06-22T17:37:06.748Z,28.46
2018-06-22T17:38:06.721Z,28.47
2018-06-22T17:39:06.757Z,28.44
2018-06-22T17:40:06.667Z,28.48
2018-06-22T17:41:06.648Z,28.43
2018-06-22T17:42:06.617Z,28.41
2018-06-22T17:43:06.598Z,28.38
2018-06-22T17:45:06.548Z,28.23
2018-06-22T17:46:06.540Z,28.28
2018-06-22T17:47:06.770Z,28.22
2018-06-22T17:48:06.510Z,28.19
2018-06-22T17:49:06.588Z,28.23
2018-06-22T17:50:06.411Z,28.13
2018-06-22T17:51:06.399Z,28.13
2018-06-22T17:52:06.381Z,28.17
2018-06-22T17:53:06.329Z,28.06
2018-06-22T17:54:06.419Z,28.10
2018-06-22T17:55:06.648Z,28.09
2018-06-22T17:56:06.254Z,28.09
2018-06-22T17:57:06.230Z,28.09
2018-06-22T17:58:06.228Z,27.95
2018-06-22T17:59:06.171Z,28.07
2018-06-22T18:00:06.164Z,28.06
2018-06-22T18:01:06.279Z,28.01
2018-06-22T18:02:06.092Z,28.01
2018-06-22T18:03:06.075Z,28.03
2018-06-22T18:04:07.250Z,28.10
2018-06-22T18:05:06.013Z,27.96
2018-06-22T18:06:06.561Z,28.03
2018-06-22T18:07:06.016Z,27.92
2018-06-22T18:08:06.045Z,27.98
2018-06-22T18:09:06.008Z,27.94
2018-06-22T18:10:05.896Z,27.91
2018-06-22T18:11:05.857Z,27.89
2018-06-22T18:12:05.991Z,27.88
2018-06-22T18:13:05.864Z,27.86
2018-06-22T18:14:05.781Z,27.89
2018-06-22T18:15:05.761Z,27.89
2018-06-22T18:16:05.735Z,27.89
2018-06-22T18:17:05.863Z,27.95
2018-06-22T18:18:05.682Z,27.96
2018-06-22T18:19:05.674Z,27.85
2018-06-22T18:20:05.635Z,27.82
2018-06-22T18:21:05.598Z,27.79
2018-06-22T18:22:05.579Z,27.80
2018-06-22T18:23:05.794Z,27.79
2018-06-22T18:24:05.517Z,27.80
2018-06-22T18:25:05.486Z,27.88
2018-06-22T18:26:05.464Z,27.88
2018-06-22T18:27:05.436Z,27.86
2018-06-22T18:28:05.415Z,27.80
2018-06-22T18:29:05.402Z,27.89
2018-06-22T18:30:05.354Z,27.89
2018-06-22T18:31:05.332Z,27.85
2018-06-22T18:32:05.312Z,27.82
2018-06-22T18:33:05.304Z,27.84
2018-06-22T18:34:05.400Z,27.89
2018-06-22T18:35:05.225Z,27.86
2018-06-22T18:36:05.208Z,27.89
2018-06-22T18:37:05.172Z,27.89
2018-06-22T18:38:05.143Z,27.84
2018-06-22T18:39:05.116Z,27.88
2018-06-22T18:40:05.252Z,27.86
2018-06-22T18:41:05.088Z,27.89
2018-06-22T18:42:05.045Z,27.85
2018-06-22T18:43:05.017Z,27.84
2018-06-22T18:44:05.001Z,27.80
2018-06-22T18:45:04.956Z,27.74
2018-06-22T18:46:04.930Z,27.71
2018-06-22T18:47:04.915Z,27.69
2018-06-22T18:48:04.886Z,27.70
2018-06-22T18:49:04.857Z,27.59
2018-06-22T18:50:04.831Z,27.62
2018-06-22T18:51:04.798Z,27.61
2018-06-22T18:52:04.792Z,27.61
2018-06-22T18:53:04.747Z,27.59
2018-06-22T18:54:04.720Z,27.67
2018-06-22T18:55:04.727Z,27.64
2018-06-22T18:56:04.671Z,27.61
2018-06-22T18:57:04.647Z,27.58
2018-06-22T18:58:04.626Z,27.62
2018-06-22T18:59:04.591Z,27.59
2018-06-22T19:00:04.565Z,27.66
2018-06-22T19:01:04.693Z,27.77
2018-06-22T19:02:04.509Z,27.76
2018-06-22T19:03:04.488Z,27.77
2018-06-22T19:04:04.456Z,27.69
2018-06-22T19:05:04.489Z,27.62
2018-06-22T19:06:04.413Z,27.48
2018-06-22T19:07:04.374Z,27.61
2018-06-22T19:08:04.346Z,27.58
2018-06-22T19:09:04.343Z,27.47
2018-06-22T19:10:04.294Z,27.36
2018-06-22T19:11:04.282Z,27.36
2018-06-22T19:12:04.608Z,27.35
2018-06-22T19:13:04.239Z,27.32
2018-06-22T19:14:04.191Z,27.24
2018-06-22T19:15:04.171Z,27.19
2018-06-22T19:16:04.134Z,27.23
2018-06-22T19:17:04.106Z,27.21
2018-06-22T19:18:04.111Z,27.17
2018-06-22T19:19:04.057Z,27.23
2018-06-22T19:20:04.028Z,27.21
2018-06-22T19:21:04.017Z,27.20
2018-06-22T19:22:04.152Z,27.24
2018-06-22T19:23:03.946Z,27.23
2018-06-22T19:24:03.921Z,27.26
2018-06-22T19:25:03.915Z,27.26
2018-06-22T19:26:03.871Z,27.19
2018-06-22T19:27:04.013Z,27.20
2018-06-22T19:28:03.877Z,27.20
2018-06-22T19:29:03.785Z,27.26
2018-06-22T19:30:03.762Z,27.21
2018-06-22T19:31:03.735Z,27.26
2018-06-22T19:32:03.718Z,27.19
2018-06-22T19:33:03.689Z,27.21
2018-06-22T19:34:03.664Z,27.19
2018-06-22T19:35:03.692Z,27.20
2018-06-22T19:36:03.605Z,27.13
2018-06-22T19:37:03.587Z,27.20
2018-06-22T19:38:03.555Z,27.14
2018-06-22T19:39:03.529Z,27.13
2018-06-22T19:40:03.514Z,27.10
2018-06-22T19:41:03.473Z,27.06
2018-06-22T19:42:03.441Z,27.09
2018-06-22T19:43:03.540Z,27.06
2018-06-22T19:44:03.407Z,27.02
2018-06-22T19:45:03.368Z,26.96
2018-06-22T19:46:03.331Z,26.99
2018-06-22T19:47:03.319Z,26.94
2018-06-22T19:48:03.409Z,27.02
2018-06-22T19:49:03.250Z,26.96
2018-06-22T19:50:03.227Z,26.89
2018-06-22T19:51:03.199Z,26.84
2018-06-22T19:52:03.206Z,26.84
2018-06-22T19:53:03.143Z,26.86
2018-06-22T19:54:03.122Z,26.89
2018-06-22T19:55:03.100Z,26.81
2018-06-22T19:56:03.071Z,26.83
2018-06-22T19:57:03.042Z,26.77
2018-06-22T19:59:02.984Z,26.73
2018-06-22T20:00:02.956Z,26.72
2018-06-22T20:01:02.942Z,26.67
2018-06-22T20:02:02.908Z,26.64
2018-06-22T20:03:02.894Z,26.61
2018-06-22T20:04:02.855Z,26.59
2018-06-22T20:05:02.822Z,26.62
2018-06-22T20:06:02.799Z,26.57
2018-06-22T20:07:02.775Z,26.49
2018-06-22T20:08:02.746Z,26.47
2018-06-22T20:09:02.779Z,26.46
2018-06-22T20:10:02.687Z,26.44
2018-06-22T20:11:02.726Z,26.42
2018-06-22T20:12:02.647Z,26.42
2018-06-22T20:13:02.626Z,26.42
2018-06-22T20:14:02.731Z,26.39
2018-06-22T20:15:02.579Z,26.24
2018-06-22T20:16:02.609Z,26.25
2018-06-22T20:17:02.504Z,26.22
2018-06-22T20:18:02.480Z,26.12
2018-06-22T20:19:02.450Z,26.02
2018-06-22T20:20:02.431Z,26.01
2018-06-22T20:21:02.402Z,25.98
2018-06-22T20:22:02.369Z,25.98
2018-06-22T20:23:02.565Z,25.87
2018-06-22T20:24:02.312Z,25.82
2018-06-22T20:25:02.390Z,25.86
2018-06-22T20:26:02.262Z,25.89
2018-06-22T20:27:02.252Z,25.89
2018-06-22T20:28:02.233Z,25.80
2018-06-22T20:29:02.187Z,25.87
2018-06-22T20:30:02.161Z,25.84
2018-06-22T20:31:02.157Z,25.89
2018-06-22T20:32:02.100Z,25.82
2018-06-22T20:33:02.077Z,25.82
2018-06-22T20:34:02.049Z,25.82
2018-06-22T20:35:02.020Z,25.74
2018-06-22T20:36:02.004Z,25.71
2018-06-22T20:37:01.963Z,25.67
2018-06-22T20:38:01.949Z,25.69
2018-06-22T20:39:01.906Z,25.64
2018-06-22T20:40:01.885Z,25.68
2018-06-22T20:41:01.885Z,25.65
2018-06-22T20:42:01.830Z,25.69
2018-06-22T20:43:01.817Z,25.67
2018-06-22T20:44:01.806Z,25.72
2018-06-22T20:45:01.745Z,25.69
2018-06-22T20:46:01.722Z,25.59
2018-06-22T20:47:01.691Z,25.57
2018-06-22T20:48:01.664Z,25.57
2018-06-22T20:49:01.640Z,25.57
2018-06-22T20:50:01.610Z,25.59
2018-06-22T20:52:01.582Z,25.67
2018-06-22T20:53:01.538Z,25.62
2018-06-22T20:54:01.497Z,25.64
2018-06-22T20:55:01.470Z,25.64
2018-06-22T20:56:01.447Z,25.64
2018-06-22T20:57:01.668Z,25.57
2018-06-22T20:58:01.406Z,25.62
2018-06-22T20:59:01.366Z,25.52
2018-06-22T21:00:01.378Z,25.43
2018-06-22T21:01:01.487Z,25.42
2018-06-22T21:02:01.286Z,25.53
2018-06-22T21:03:01.258Z,25.57
2018-06-22T21:04:01.283Z,25.42
2018-06-22T21:05:01.247Z,25.44
2018-06-22T21:06:01.172Z,25.39
2018-06-22T21:07:01.177Z,25.38
2018-06-22T21:08:01.117Z,25.44
2018-06-22T21:09:01.093Z,25.42
2018-06-22T21:10:01.063Z,25.38
2018-06-22T21:11:01.041Z,25.32
2018-06-22T21:12:01.018Z,25.34
2018-06-22T21:13:01.234Z,25.30
2018-06-22T21:14:00.954Z,25.38
2018-06-22T21:15:00.940Z,25.27
2018-06-22T21:16:00.893Z,25.24
2018-06-22T21:17:00.872Z,25.32
2018-06-22T21:18:00.846Z,25.22
2018-06-22T21:19:00.810Z,25.20
2018-06-22T21:20:00.785Z,25.20
2018-06-22T21:21:00.762Z,25.20
2018-06-22T21:22:00.733Z,25.17
2018-06-22T21:23:00.704Z,25.16
2018-06-22T21:24:00.904Z,25.15
2018-06-22T21:25:00.646Z,25.20
2018-06-22T21:26:00.626Z,25.19
2018-06-22T21:27:00.592Z,25.10
2018-06-22T21:28:00.567Z,25.02
2018-06-22T21:29:00.535Z,25.00
2018-06-22T21:30:00.507Z,24.94
2018-06-22T21:31:00.480Z,24.92
2018-06-22T21:32:00.451Z,24.95
2018-06-22T21:33:00.642Z,24.90
2018-06-22T21:34:00.454Z,24.85
2018-06-22T21:35:00.368Z,24.69
2018-06-22T21:36:00.342Z,24.67
2018-06-22T21:37:00.316Z,24.71
2018-06-22T21:38:00.285Z,24.63
2018-06-22T21:39:00.584Z,24.57
2018-06-22T21:40:00.254Z,24.61
2018-06-22T21:41:00.237Z,24.64
2018-06-22T21:42:00.180Z,24.68
2018-06-22T21:43:00.189Z,24.59
2018-06-22T21:44:00.117Z,24.60
2018-06-22T21:45:00.242Z,24.56
2018-06-22T21:46:00.064Z,24.53
2018-06-22T21:47:00.070Z,24.50
2018-06-22T21:48:00.067Z,24.60
2018-06-22T21:49:00.009Z,24.61
2018-06-22T21:49:59.955Z,24.63
2018-06-22T21:50:59.926Z,24.61
2018-06-22T21:51:59.909Z,24.61
2018-06-22T21:52:59.887Z,24.53
2018-06-22T21:53:59.847Z,24.49
2018-06-22T21:54:59.811Z,24.50
2018-06-22T21:55:59.796Z,24.38
2018-06-22T21:56:59.756Z,24.32
2018-06-22T21:57:59.726Z,24.38
2018-06-22T21:58:59.705Z,24.31
2018-06-22T21:59:59.688Z,24.32
2018-06-22T22:00:59.641Z,24.38
2018-06-22T22:01:59.610Z,24.35
2018-06-22T22:02:59.585Z,24.39
2018-06-22T22:03:59.563Z,24.42
2018-06-22T22:04:59.574Z,24.38
2018-06-22T22:05:59.666Z,24.39
2018-06-22T22:06:59.489Z,24.27
2018-06-22T22:07:59.454Z,24.32
2018-06-22T22:08:59.426Z,24.37
2018-06-22T22:09:59.388Z,24.34
2018-06-22T22:10:59.366Z,24.26
2018-06-22T22:11:59.350Z,24.16
2018-06-22T22:12:59.327Z,24.35
2018-06-22T22:13:59.293Z,24.34
2018-06-22T22:14:59.259Z,24.35
2018-06-22T22:15:59.242Z,24.35
2018-06-22T22:16:59.211Z,24.16
2018-06-22T22:17:59.166Z,24.24
2018-06-22T22:18:59.143Z,24.19
2018-06-22T22:19:59.109Z,24.19
2018-06-22T22:20:59.092Z,24.10
2018-06-22T22:21:59.059Z,24.07
2018-06-22T22:22:59.023Z,23.94
2018-06-22T22:23:58.993Z,23.94
2018-06-22T22:24:58.961Z,23.90
2018-06-22T22:25:58.937Z,23.83
2018-06-22T22:26:58.913Z,23.83
2018-06-22T22:27:58.898Z,23.79
2018-06-22T22:28:58.905Z,23.68
2018-06-22T22:29:58.827Z,23.68
2018-06-22T22:30:58.808Z,23.71
2018-06-22T22:31:58.765Z,23.77
2018-06-22T22:32:58.779Z,23.85
2018-06-22T22:33:58.724Z,23.75
2018-06-22T22:34:58.695Z,23.80
2018-06-22T22:35:58.694Z,23.72
2018-06-22T22:36:58.831Z,23.77
2018-06-22T22:37:58.609Z,23.75
2018-06-22T22:38:58.577Z,23.80
2018-06-22T22:39:58.574Z,23.65
2018-06-22T22:40:58.531Z,23.65
2018-06-22T22:41:58.491Z,23.77
2018-06-22T22:42:58.779Z,23.75
2018-06-22T22:43:58.447Z,23.70
2018-06-22T22:44:58.407Z,23.67
2018-06-22T22:45:58.377Z,23.64
2018-06-22T22:46:58.362Z,23.64
2018-06-22T22:47:58.356Z,23.55
2018-06-22T22:48:58.451Z,23.47
2018-06-22T22:49:58.258Z,23.39
2018-06-22T22:50:58.254Z,23.35
2018-06-22T22:51:58.204Z,23.29
2018-06-22T22:52:58.169Z,23.19
2018-06-22T22:53:58.145Z,23.17
2018-06-22T22:54:58.121Z,23.09
2018-06-22T22:55:58.084Z,23.14
2018-06-22T22:56:58.084Z,23.17
2018-06-22T22:57:58.033Z,23.07
2018-06-22T22:58:58.018Z,23.05
2018-06-22T22:59:57.985Z,23.09
2018-06-22T23:00:57.965Z,23.09
2018-06-22T23:01:57.921Z,23.09
2018-06-22T23:02:57.942Z,23.17
2018-06-22T23:03:57.889Z,23.12
2018-06-22T23:04:57.837Z,23.24
2018-06-22T23:05:57.830Z,23.24
2018-06-22T23:06:57.807Z,23.23
2018-06-22T23:07:57.743Z,23.26
2018-06-22T23:08:57.913Z,23.23
2018-06-22T23:09:57.687Z,23.29
2018-06-22T23:10:57.656Z,23.23
2018-06-22T23:11:57.648Z,23.26
2018-06-22T23:12:57.654Z,23.20
2018-06-22T23:13:57.639Z,23.17
2018-06-22T23:14:57.566Z,23.08
2018-06-22T23:15:57.518Z,23.02
2018-06-22T23:16:57.510Z,23.07
2018-06-22T23:17:57.522Z,22.97
2018-06-22T23:18:57.525Z,23.01
2018-06-22T23:19:57.658Z,22.92
2018-06-22T23:20:57.371Z,22.93
2018-06-22T23:21:57.361Z,22.96
2018-06-22T23:22:57.320Z,22.94
2018-06-22T23:23:57.293Z,22.92
2018-06-22T23:24:57.266Z,22.96
2018-06-22T23:25:57.391Z,22.99
2018-06-22T23:26:57.201Z,22.97
2018-06-22T23:27:57.169Z,23.01
2018-06-22T23:28:57.141Z,23.07
2018-06-22T23:29:57.115Z,23.09
2018-06-22T23:30:57.089Z,23.22
2018-06-22T23:31:57.053Z,23.27
2018-06-22T23:32:57.047Z,23.12
2018-06-22T23:33:56.998Z,23.17
2018-06-22T23:34:56.970Z,23.14
2018-06-22T23:35:56.935Z,23.19
2018-06-22T23:36:57.175Z,23.11
2018-06-22T23:37:56.876Z,23.05
2018-06-22T23:38:56.876Z,23.01
2018-06-22T23:39:56.826Z,23.02
2018-06-22T23:40:56.794Z,22.94
2018-06-22T23:41:56.921Z,22.94
2018-06-22T23:42:56.736Z,22.94
2018-06-22T23:43:56.709Z,22.93
2018-06-22T23:44:56.691Z,22.96
2018-06-22T23:45:56.655Z,22.99
2018-06-22T23:46:56.738Z,22.87
2018-06-22T23:47:56.599Z,22.92
2018-06-22T23:48:56.570Z,22.86
2018-06-22T23:49:56.557Z,22.87
2018-06-22T23:50:56.508Z,22.84
2018-06-22T23:51:56.483Z,22.87
2018-06-22T23:52:56.612Z,22.86
2018-06-22T23:53:56.437Z,22.77
2018-06-22T23:54:56.455Z,22.82
2018-06-22T23:55:56.380Z,22.74
2018-06-22T23:56:56.334Z,22.71
2018-06-22T23:57:56.307Z,22.74
2018-06-22T23:58:56.448Z,22.72
2018-06-22T23:59:56.242Z,22.64
